LFMH/EBU METAR and TAF weather

Enter ICAO airport designator
Station Type Date Time Source
LFMH METAR 2019/02/18 04:00 UTC NOAA

LFMH 180400Z AUTO 22006KT 190V250 CAVOK 06/M00 Q1022 NOSIG


Station Type Date Time Source
LFMH Decoded METAR 2019/02/18 04:00 UTC NOAA

St-Etienne Boutheon, France (LFMH) 45-32N 004-18E 402M
Feb 17, 2019 - 11:00 PM EST / 2019.02.18 0400 UTC
Wind: from the SW (220 degrees) at 7 MPH (6 KT) (direction variable):0
Visibility: greater than 7 mile(s):0
Temperature: 42 F (6 C)
Dew Point: 32 F (0 C)
Relative Humidity: 65%
Pressure (altimeter): 30.18 in. Hg (1022 hPa)
ob: LFMH 180400Z AUTO 22006KT 190V250 CAVOK 06/M00 Q1022 NOSIG
cycle: 4

Station Type Date Time Source
LFMH TAF 2019/02/18 03:23 UTC NOAA

TAF LFMH 180200Z 1803/1903 18004KT CAVOK
BECMG 1803/1806 18008KT
BECMG 1900/1903 18003KT


Example: see airport list